sensor_id;sensor_type;location;lat;lon;timestamp;P1;durP1;ratioP1;P2;durP2;ratioP2
43154;SDS011;34212;51.018;13.586;2023-12-04T00:00:54;13.68;;;7.93;;
43154;SDS011;34212;51.018;13.586;2023-12-04T00:05:56;17.17;;;8.77;;
43154;SDS011;34212;51.018;13.586;2023-12-04T00:10:57;11.30;;;6.80;;
43154;SDS011;34212;51.018;13.586;2023-12-04T00:15:59;12.55;;;7.38;;
43154;SDS011;34212;51.018;13.586;2023-12-04T00:21:01;11.23;;;6.47;;
43154;SDS011;34212;51.018;13.586;2023-12-04T00:26:02;10.60;;;6.25;;
43154;SDS011;34212;51.018;13.586;2023-12-04T00:31:04;9.27;;;5.85;;
43154;SDS011;34212;51.018;13.586;2023-12-04T00:36:06;9.07;;;5.82;;
43154;SDS011;34212;51.018;13.586;2023-12-04T00:41:08;7.50;;;4.68;;
43154;SDS011;34212;51.018;13.586;2023-12-04T00:46:09;9.02;;;6.05;;
43154;SDS011;34212;51.018;13.586;2023-12-04T00:51:11;8.40;;;4.95;;
43154;SDS011;34212;51.018;13.586;2023-12-04T00:56:13;9.52;;;5.32;;
43154;SDS011;34212;51.018;13.586;2023-12-04T01:01:14;8.18;;;4.63;;
43154;SDS011;34212;51.018;13.586;2023-12-04T01:06:22;6.30;;;4.38;;
43154;SDS011;34212;51.018;13.586;2023-12-04T01:11:24;8.73;;;5.20;;
43154;SDS011;34212;51.018;13.586;2023-12-04T01:16:26;8.15;;;4.43;;
43154;SDS011;34212;51.018;13.586;2023-12-04T01:21:27;10.35;;;5.15;;
43154;SDS011;34212;51.018;13.586;2023-12-04T01:26:29;7.95;;;4.68;;
43154;SDS011;34212;51.018;13.586;2023-12-04T01:31:31;10.38;;;5.80;;
43154;SDS011;34212;51.018;13.586;2023-12-04T01:36:32;9.13;;;5.10;;
43154;SDS011;34212;51.018;13.586;2023-12-04T01:41:34;8.40;;;5.18;;
43154;SDS011;34212;51.018;13.586;2023-12-04T01:46:36;10.35;;;5.10;;
43154;SDS011;34212;51.018;13.586;2023-12-04T01:51:38;7.72;;;4.38;;
43154;SDS011;34212;51.018;13.586;2023-12-04T01:56:39;6.97;;;4.53;;
43154;SDS011;34212;51.018;13.586;2023-12-04T02:01:41;6.60;;;4.60;;
43154;SDS011;34212;51.018;13.586;2023-12-04T02:06:43;8.32;;;4.50;;
43154;SDS011;34212;51.018;13.586;2023-12-04T02:11:45;6.60;;;4.03;;
43154;SDS011;34212;51.018;13.586;2023-12-04T02:16:47;5.55;;;3.58;;
43154;SDS011;34212;51.018;13.586;2023-12-04T02:21:50;6.22;;;3.58;;
43154;SDS011;34212;51.018;13.586;2023-12-04T02:32:15;5.75;;;3.50;;
43154;SDS011;34212;51.018;13.586;2023-12-04T02:37:20;5.78;;;3.50;;
43154;SDS011;34212;51.018;13.586;2023-12-04T02:42:24;5.30;;;3.30;;
43154;SDS011;34212;51.018;13.586;2023-12-04T02:47:28;4.85;;;2.92;;
43154;SDS011;34212;51.018;13.586;2023-12-04T02:52:30;4.90;;;2.83;;
43154;SDS011;34212;51.018;13.586;2023-12-04T02:57:31;5.05;;;3.20;;
43154;SDS011;34212;51.018;13.586;2023-12-04T03:02:33;5.03;;;3.28;;
43154;SDS011;34212;51.018;13.586;2023-12-04T03:07:35;5.18;;;2.92;;
43154;SDS011;34212;51.018;13.586;2023-12-04T03:12:37;5.05;;;3.25;;
43154;SDS011;34212;51.018;13.586;2023-12-04T03:17:39;5.50;;;3.40;;
43154;SDS011;34212;51.018;13.586;2023-12-04T03:22:40;4.63;;;3.17;;
43154;SDS011;34212;51.018;13.586;2023-12-04T03:27:42;7.38;;;4.15;;
43154;SDS011;34212;51.018;13.586;2023-12-04T03:32:43;8.10;;;4.32;;
43154;SDS011;34212;51.018;13.586;2023-12-04T03:37:45;7.63;;;4.75;;
43154;SDS011;34212;51.018;13.586;2023-12-04T03:42:47;7.05;;;3.88;;
43154;SDS011;34212;51.018;13.586;2023-12-04T03:47:48;6.30;;;3.97;;
43154;SDS011;34212;51.018;13.586;2023-12-04T03:52:50;6.00;;;3.95;;
43154;SDS011;34212;51.018;13.586;2023-12-04T03:57:52;6.20;;;4.18;;
43154;SDS011;34212;51.018;13.586;2023-12-04T04:02:54;6.95;;;4.43;;
43154;SDS011;34212;51.018;13.586;2023-12-04T04:07:56;6.05;;;4.28;;
43154;SDS011;34212;51.018;13.586;2023-12-04T04:12:57;8.80;;;4.15;;
43154;SDS011;34212;51.018;13.586;2023-12-04T04:17:59;5.93;;;3.63;;
43154;SDS011;34212;51.018;13.586;2023-12-04T04:23:01;6.28;;;3.75;;
43154;SDS011;34212;51.018;13.586;2023-12-04T04:28:02;7.28;;;3.85;;
43154;SDS011;34212;51.018;13.586;2023-12-04T04:33:04;6.72;;;4.15;;
43154;SDS011;34212;51.018;13.586;2023-12-04T04:38:06;6.60;;;4.28;;
43154;SDS011;34212;51.018;13.586;2023-12-04T04:43:08;9.00;;;4.00;;
43154;SDS011;34212;51.018;13.586;2023-12-04T04:48:10;7.70;;;4.63;;
43154;SDS011;34212;51.018;13.586;2023-12-04T04:53:11;8.20;;;4.50;;
43154;SDS011;34212;51.018;13.586;2023-12-04T04:58:13;7.13;;;4.35;;
43154;SDS011;34212;51.018;13.586;2023-12-04T05:03:15;6.68;;;4.30;;
43154;SDS011;34212;51.018;13.586;2023-12-04T05:08:16;7.28;;;3.88;;
43154;SDS011;34212;51.018;13.586;2023-12-04T05:13:18;7.25;;;3.95;;
43154;SDS011;34212;51.018;13.586;2023-12-04T05:18:21;8.02;;;4.43;;
43154;SDS011;34212;51.018;13.586;2023-12-04T05:23:22;6.88;;;3.83;;
43154;SDS011;34212;51.018;13.586;2023-12-04T05:28:24;6.88;;;4.30;;
43154;SDS011;34212;51.018;13.586;2023-12-04T05:33:25;7.20;;;4.72;;
43154;SDS011;34212;51.018;13.586;2023-12-04T05:38:27;8.27;;;4.78;;
43154;SDS011;34212;51.018;13.586;2023-12-04T05:43:28;6.80;;;4.13;;
43154;SDS011;34212;51.018;13.586;2023-12-04T05:48:30;8.63;;;4.60;;
43154;SDS011;34212;51.018;13.586;2023-12-04T05:53:31;7.72;;;5.07;;
43154;SDS011;34212;51.018;13.586;2023-12-04T05:58:33;6.60;;;4.18;;
43154;SDS011;34212;51.018;13.586;2023-12-04T06:03:34;8.15;;;4.65;;
43154;SDS011;34212;51.018;13.586;2023-12-04T06:08:36;11.40;;;5.57;;
43154;SDS011;34212;51.018;13.586;2023-12-04T06:13:37;10.23;;;4.72;;
43154;SDS011;34212;51.018;13.586;2023-12-04T06:18:39;8.80;;;5.53;;
43154;SDS011;34212;51.018;13.586;2023-12-04T06:23:41;9.23;;;5.28;;
43154;SDS011;34212;51.018;13.586;2023-12-04T06:28:43;8.07;;;5.28;;
43154;SDS011;34212;51.018;13.586;2023-12-04T06:33:45;8.80;;;5.68;;
43154;SDS011;34212;51.018;13.586;2023-12-04T06:38:47;10.80;;;5.95;;
43154;SDS011;34212;51.018;13.586;2023-12-04T06:43:53;10.18;;;6.03;;
43154;SDS011;34212;51.018;13.586;2023-12-04T06:48:54;14.23;;;7.00;;
43154;SDS011;34212;51.018;13.586;2023-12-04T06:53:58;11.10;;;6.65;;
43154;SDS011;34212;51.018;13.586;2023-12-04T06:59:00;16.27;;;7.53;;
43154;SDS011;34212;51.018;13.586;2023-12-04T07:04:01;15.15;;;7.68;;
43154;SDS011;34212;51.018;13.586;2023-12-04T07:09:11;13.20;;;7.30;;
43154;SDS011;34212;51.018;13.586;2023-12-04T07:14:12;17.25;;;8.43;;
43154;SDS011;34212;51.018;13.586;2023-12-04T07:19:14;19.00;;;8.80;;
43154;SDS011;34212;51.018;13.586;2023-12-04T07:24:17;38.78;;;15.07;;
43154;SDS011;34212;51.018;13.586;2023-12-04T07:29:19;22.52;;;10.55;;
43154;SDS011;34212;51.018;13.586;2023-12-04T07:34:20;22.90;;;10.90;;
43154;SDS011;34212;51.018;13.586;2023-12-04T07:39:22;19.65;;;9.73;;
43154;SDS011;34212;51.018;13.586;2023-12-04T07:44:24;16.02;;;8.57;;
43154;SDS011;34212;51.018;13.586;2023-12-04T07:49:25;18.63;;;9.07;;
43154;SDS011;34212;51.018;13.586;2023-12-04T07:54:27;18.40;;;9.48;;
43154;SDS011;34212;51.018;13.586;2023-12-04T07:59:29;21.08;;;10.15;;
43154;SDS011;34212;51.018;13.586;2023-12-04T08:04:30;14.27;;;7.95;;
43154;SDS011;34212;51.018;13.586;2023-12-04T08:09:32;15.48;;;8.23;;
43154;SDS011;34212;51.018;13.586;2023-12-04T08:14:33;12.95;;;7.47;;
43154;SDS011;34212;51.018;13.586;2023-12-04T08:19:35;17.00;;;8.32;;
43154;SDS011;34212;51.018;13.586;2023-12-04T08:24:39;14.90;;;7.60;;
43154;SDS011;34212;51.018;13.586;2023-12-04T08:29:40;14.40;;;7.50;;
43154;SDS011;34212;51.018;13.586;2023-12-04T08:34:42;11.55;;;6.40;;
43154;SDS011;34212;51.018;13.586;2023-12-04T08:39:43;11.70;;;6.82;;
43154;SDS011;34212;51.018;13.586;2023-12-04T08:44:45;17.92;;;8.65;;
43154;SDS011;34212;51.018;13.586;2023-12-04T08:54:50;10.55;;;5.95;;
43154;SDS011;34212;51.018;13.586;2023-12-04T08:59:52;11.88;;;6.30;;
43154;SDS011;34212;51.018;13.586;2023-12-04T09:04:57;14.00;;;7.53;;
43154;SDS011;34212;51.018;13.586;2023-12-04T09:09:59;15.15;;;7.35;;
43154;SDS011;34212;51.018;13.586;2023-12-04T09:15:08;14.02;;;7.00;;
43154;SDS011;34212;51.018;13.586;2023-12-04T09:20:10;13.90;;;6.18;;
43154;SDS011;34212;51.018;13.586;2023-12-04T09:25:12;9.23;;;5.63;;
43154;SDS011;34212;51.018;13.586;2023-12-04T09:30:14;13.93;;;6.35;;
43154;SDS011;34212;51.018;13.586;2023-12-04T09:35:16;19.77;;;8.95;;
43154;SDS011;34212;51.018;13.586;2023-12-04T09:40:17;14.25;;;7.47;;
43154;SDS011;34212;51.018;13.586;2023-12-04T09:45:19;19.30;;;9.13;;
43154;SDS011;34212;51.018;13.586;2023-12-04T09:50:21;15.40;;;8.20;;
43154;SDS011;34212;51.018;13.586;2023-12-04T10:00:27;12.80;;;6.78;;
43154;SDS011;34212;51.018;13.586;2023-12-04T10:05:29;12.30;;;6.85;;
43154;SDS011;34212;51.018;13.586;2023-12-04T10:10:32;10.23;;;6.13;;
43154;SDS011;34212;51.018;13.586;2023-12-04T10:15:45;17.35;;;8.18;;
43154;SDS011;34212;51.018;13.586;2023-12-04T10:20:51;11.02;;;7.00;;
43154;SDS011;34212;51.018;13.586;2023-12-04T10:25:55;8.60;;;5.50;;
43154;SDS011;34212;51.018;13.586;2023-12-04T10:30:57;10.20;;;5.97;;
43154;SDS011;34212;51.018;13.586;2023-12-04T10:35:58;8.65;;;5.63;;
43154;SDS011;34212;51.018;13.586;2023-12-04T10:41:11;8.20;;;5.25;;
43154;SDS011;34212;51.018;13.586;2023-12-04T10:46:14;8.90;;;6.03;;
43154;SDS011;34212;51.018;13.586;2023-12-04T10:51:19;8.98;;;5.50;;
43154;SDS011;34212;51.018;13.586;2023-12-04T10:56:30;10.75;;;4.88;;
43154;SDS011;34212;51.018;13.586;2023-12-04T11:01:35;9.63;;;5.90;;
43154;SDS011;34212;51.018;13.586;2023-12-04T11:06:37;10.38;;;6.13;;
43154;SDS011;34212;51.018;13.586;2023-12-04T11:11:42;7.22;;;4.78;;
43154;SDS011;34212;51.018;13.586;2023-12-04T11:16:48;7.78;;;5.25;;
43154;SDS011;34212;51.018;13.586;2023-12-04T11:21:58;8.45;;;5.53;;
43154;SDS011;34212;51.018;13.586;2023-12-04T11:27:00;7.32;;;4.90;;
43154;SDS011;34212;51.018;13.586;2023-12-04T11:32:05;7.18;;;5.22;;
43154;SDS011;34212;51.018;13.586;2023-12-04T11:37:08;7.95;;;5.53;;
43154;SDS011;34212;51.018;13.586;2023-12-04T11:42:09;7.40;;;5.32;;
43154;SDS011;34212;51.018;13.586;2023-12-04T11:47:14;8.45;;;4.85;;
43154;SDS011;34212;51.018;13.586;2023-12-04T11:52:33;9.00;;;5.40;;
43154;SDS011;34212;51.018;13.586;2023-12-04T11:57:36;9.98;;;6.43;;
43154;SDS011;34212;51.018;13.586;2023-12-04T12:02:45;8.45;;;5.82;;
43154;SDS011;34212;51.018;13.586;2023-12-04T12:08:23;11.07;;;6.93;;
43154;SDS011;34212;51.018;13.586;2023-12-04T12:13:25;9.68;;;6.28;;
43154;SDS011;34212;51.018;13.586;2023-12-04T12:18:27;9.40;;;6.53;;
43154;SDS011;34212;51.018;13.586;2023-12-04T12:23:30;7.70;;;4.80;;
43154;SDS011;34212;51.018;13.586;2023-12-04T12:28:31;7.90;;;4.90;;
43154;SDS011;34212;51.018;13.586;2023-12-04T12:33:33;6.72;;;4.82;;
43154;SDS011;34212;51.018;13.586;2023-12-04T12:38:35;6.88;;;4.55;;
43154;SDS011;34212;51.018;13.586;2023-12-04T12:43:38;6.90;;;4.43;;
43154;SDS011;34212;51.018;13.586;2023-12-04T12:48:39;7.47;;;4.80;;
43154;SDS011;34212;51.018;13.586;2023-12-04T12:53:44;7.45;;;4.78;;
43154;SDS011;34212;51.018;13.586;2023-12-04T12:58:52;10.52;;;6.55;;
43154;SDS011;34212;51.018;13.586;2023-12-04T13:03:56;10.20;;;5.70;;
43154;SDS011;34212;51.018;13.586;2023-12-04T13:08:58;11.75;;;7.05;;
43154;SDS011;34212;51.018;13.586;2023-12-04T13:14:00;12.23;;;7.40;;
43154;SDS011;34212;51.018;13.586;2023-12-04T13:19:02;12.32;;;7.63;;
43154;SDS011;34212;51.018;13.586;2023-12-04T13:24:04;13.50;;;7.88;;
43154;SDS011;34212;51.018;13.586;2023-12-04T13:29:08;15.10;;;7.97;;
43154;SDS011;34212;51.018;13.586;2023-12-04T13:34:10;14.60;;;8.55;;
43154;SDS011;34212;51.018;13.586;2023-12-04T13:39:13;12.40;;;7.60;;
43154;SDS011;34212;51.018;13.586;2023-12-04T13:44:18;13.52;;;8.70;;
43154;SDS011;34212;51.018;13.586;2023-12-04T13:49:20;12.93;;;8.23;;
43154;SDS011;34212;51.018;13.586;2023-12-04T13:54:21;17.13;;;8.30;;
43154;SDS011;34212;51.018;13.586;2023-12-04T13:59:33;12.15;;;7.78;;
43154;SDS011;34212;51.018;13.586;2023-12-04T14:04:39;14.00;;;8.18;;
43154;SDS011;34212;51.018;13.586;2023-12-04T14:09:41;13.88;;;7.68;;
43154;SDS011;34212;51.018;13.586;2023-12-04T14:14:43;13.85;;;7.53;;
43154;SDS011;34212;51.018;13.586;2023-12-04T14:19:44;22.52;;;9.40;;
43154;SDS011;34212;51.018;13.586;2023-12-04T14:24:46;18.70;;;9.05;;
43154;SDS011;34212;51.018;13.586;2023-12-04T14:29:48;15.35;;;7.57;;
43154;SDS011;34212;51.018;13.586;2023-12-04T14:34:49;14.75;;;8.35;;
43154;SDS011;34212;51.018;13.586;2023-12-04T14:39:51;13.70;;;7.75;;
43154;SDS011;34212;51.018;13.586;2023-12-04T14:44:52;15.00;;;8.20;;
43154;SDS011;34212;51.018;13.586;2023-12-04T14:49:54;13.02;;;7.50;;
43154;SDS011;34212;51.018;13.586;2023-12-04T14:54:57;12.07;;;7.40;;
43154;SDS011;34212;51.018;13.586;2023-12-04T15:00:05;11.63;;;6.80;;
43154;SDS011;34212;51.018;13.586;2023-12-04T15:05:27;15.13;;;8.50;;
43154;SDS011;34212;51.018;13.586;2023-12-04T15:10:29;14.35;;;7.30;;
43154;SDS011;34212;51.018;13.586;2023-12-04T15:15:49;12.75;;;6.45;;
43154;SDS011;34212;51.018;13.586;2023-12-04T15:21:09;12.75;;;7.13;;
43154;SDS011;34212;51.018;13.586;2023-12-04T15:26:10;17.00;;;8.90;;
43154;SDS011;34212;51.018;13.586;2023-12-04T15:31:12;15.25;;;8.35;;
43154;SDS011;34212;51.018;13.586;2023-12-04T15:36:13;22.67;;;10.45;;
43154;SDS011;34212;51.018;13.586;2023-12-04T15:41:15;16.35;;;9.57;;
43154;SDS011;34212;51.018;13.586;2023-12-04T15:46:18;18.65;;;11.05;;
43154;SDS011;34212;51.018;13.586;2023-12-04T15:51:19;12.77;;;8.63;;
43154;SDS011;34212;51.018;13.586;2023-12-04T15:56:21;17.70;;;10.10;;
43154;SDS011;34212;51.018;13.586;2023-12-04T16:01:23;12.25;;;8.15;;
43154;SDS011;34212;51.018;13.586;2023-12-04T16:06:25;22.88;;;11.98;;
43154;SDS011;34212;51.018;13.586;2023-12-04T16:11:26;29.17;;;15.65;;
43154;SDS011;34212;51.018;13.586;2023-12-04T16:16:28;26.52;;;14.15;;
43154;SDS011;34212;51.018;13.586;2023-12-04T16:21:30;18.83;;;11.32;;
43154;SDS011;34212;51.018;13.586;2023-12-04T16:26:32;20.20;;;12.55;;
43154;SDS011;34212;51.018;13.586;2023-12-04T16:31:35;14.98;;;8.90;;
43154;SDS011;34212;51.018;13.586;2023-12-04T16:36:37;16.75;;;10.43;;
43154;SDS011;34212;51.018;13.586;2023-12-04T16:41:38;15.93;;;10.05;;
43154;SDS011;34212;51.018;13.586;2023-12-04T16:46:40;23.15;;;13.57;;
43154;SDS011;34212;51.018;13.586;2023-12-04T16:51:42;18.60;;;12.05;;
43154;SDS011;34212;51.018;13.586;2023-12-04T16:56:46;17.90;;;11.55;;
43154;SDS011;34212;51.018;13.586;2023-12-04T17:01:49;19.40;;;10.52;;
43154;SDS011;34212;51.018;13.586;2023-12-04T17:06:51;16.83;;;9.07;;
43154;SDS011;34212;51.018;13.586;2023-12-04T17:11:52;21.27;;;11.27;;
43154;SDS011;34212;51.018;13.586;2023-12-04T17:16:54;16.45;;;9.18;;
43154;SDS011;34212;51.018;13.586;2023-12-04T17:21:56;36.88;;;18.23;;
43154;SDS011;34212;51.018;13.586;2023-12-04T17:26:57;31.08;;;16.33;;
43154;SDS011;34212;51.018;13.586;2023-12-04T17:31:59;20.60;;;11.15;;
43154;SDS011;34212;51.018;13.586;2023-12-04T17:37:03;17.77;;;10.25;;
43154;SDS011;34212;51.018;13.586;2023-12-04T17:42:04;17.38;;;11.15;;
43154;SDS011;34212;51.018;13.586;2023-12-04T17:47:06;18.58;;;11.88;;
43154;SDS011;34212;51.018;13.586;2023-12-04T17:52:10;19.02;;;11.65;;
43154;SDS011;34212;51.018;13.586;2023-12-04T17:57:11;16.23;;;10.55;;
43154;SDS011;34212;51.018;13.586;2023-12-04T18:02:13;19.88;;;12.13;;
43154;SDS011;34212;51.018;13.586;2023-12-04T18:07:15;16.92;;;10.40;;
43154;SDS011;34212;51.018;13.586;2023-12-04T18:12:16;22.73;;;12.63;;
43154;SDS011;34212;51.018;13.586;2023-12-04T18:17:18;16.73;;;10.75;;
43154;SDS011;34212;51.018;13.586;2023-12-04T18:27:23;37.53;;;18.63;;
43154;SDS011;34212;51.018;13.586;2023-12-04T18:32:25;25.88;;;13.57;;
43154;SDS011;34212;51.018;13.586;2023-12-04T18:37:27;18.90;;;11.68;;
43154;SDS011;34212;51.018;13.586;2023-12-04T18:42:34;22.00;;;13.60;;
43154;SDS011;34212;51.018;13.586;2023-12-04T18:47:36;22.58;;;12.45;;
43154;SDS011;34212;51.018;13.586;2023-12-04T18:52:44;20.55;;;10.80;;
43154;SDS011;34212;51.018;13.586;2023-12-04T18:57:45;22.10;;;13.00;;
43154;SDS011;34212;51.018;13.586;2023-12-04T19:02:47;21.33;;;12.68;;
43154;SDS011;34212;51.018;13.586;2023-12-04T19:07:48;19.45;;;11.88;;
43154;SDS011;34212;51.018;13.586;2023-12-04T19:12:50;18.67;;;12.02;;
43154;SDS011;34212;51.018;13.586;2023-12-04T19:17:52;22.48;;;15.23;;
43154;SDS011;34212;51.018;13.586;2023-12-04T19:22:55;21.00;;;13.63;;
43154;SDS011;34212;51.018;13.586;2023-12-04T19:27:57;20.77;;;12.95;;
43154;SDS011;34212;51.018;13.586;2023-12-04T19:32:58;17.40;;;11.63;;
43154;SDS011;34212;51.018;13.586;2023-12-04T19:38:00;19.10;;;11.70;;
43154;SDS011;34212;51.018;13.586;2023-12-04T19:43:02;16.58;;;11.25;;
43154;SDS011;34212;51.018;13.586;2023-12-04T19:48:05;19.25;;;11.32;;
43154;SDS011;34212;51.018;13.586;2023-12-04T19:53:06;18.77;;;12.13;;
43154;SDS011;34212;51.018;13.586;2023-12-04T19:58:08;19.63;;;11.57;;
43154;SDS011;34212;51.018;13.586;2023-12-04T20:03:10;19.30;;;12.30;;
43154;SDS011;34212;51.018;13.586;2023-12-04T20:08:13;19.20;;;11.75;;
43154;SDS011;34212;51.018;13.586;2023-12-04T20:13:16;16.77;;;11.70;;
43154;SDS011;34212;51.018;13.586;2023-12-04T20:18:17;19.85;;;12.30;;
43154;SDS011;34212;51.018;13.586;2023-12-04T20:23:19;20.60;;;13.15;;
43154;SDS011;34212;51.018;13.586;2023-12-04T20:28:20;18.70;;;12.68;;
43154;SDS011;34212;51.018;13.586;2023-12-04T20:33:22;21.45;;;13.88;;
43154;SDS011;34212;51.018;13.586;2023-12-04T20:38:24;20.40;;;12.77;;
43154;SDS011;34212;51.018;13.586;2023-12-04T20:43:26;20.10;;;12.73;;
43154;SDS011;34212;51.018;13.586;2023-12-04T20:48:29;21.58;;;12.75;;
43154;SDS011;34212;51.018;13.586;2023-12-04T20:53:31;18.23;;;12.07;;
43154;SDS011;34212;51.018;13.586;2023-12-04T20:58:33;19.98;;;12.27;;
43154;SDS011;34212;51.018;13.586;2023-12-04T21:03:34;32.42;;;17.15;;
43154;SDS011;34212;51.018;13.586;2023-12-04T21:08:36;24.52;;;14.00;;
43154;SDS011;34212;51.018;13.586;2023-12-04T21:13:37;20.55;;;12.30;;
43154;SDS011;34212;51.018;13.586;2023-12-04T21:18:39;22.42;;;13.93;;
43154;SDS011;34212;51.018;13.586;2023-12-04T21:23:41;22.02;;;13.32;;
43154;SDS011;34212;51.018;13.586;2023-12-04T21:28:42;20.60;;;13.50;;
43154;SDS011;34212;51.018;13.586;2023-12-04T21:33:44;23.20;;;13.70;;
43154;SDS011;34212;51.018;13.586;2023-12-04T21:38:47;26.50;;;14.03;;
43154;SDS011;34212;51.018;13.586;2023-12-04T21:43:48;19.33;;;12.23;;
43154;SDS011;34212;51.018;13.586;2023-12-04T21:48:50;19.30;;;12.02;;
43154;SDS011;34212;51.018;13.586;2023-12-04T21:53:51;21.88;;;13.40;;
43154;SDS011;34212;51.018;13.586;2023-12-04T21:58:53;19.70;;;11.93;;
43154;SDS011;34212;51.018;13.586;2023-12-04T22:03:55;20.58;;;12.13;;
43154;SDS011;34212;51.018;13.586;2023-12-04T22:08:57;20.35;;;11.55;;
43154;SDS011;34212;51.018;13.586;2023-12-04T22:13:59;20.73;;;11.60;;
43154;SDS011;34212;51.018;13.586;2023-12-04T22:19:01;17.92;;;10.63;;
43154;SDS011;34212;51.018;13.586;2023-12-04T22:24:02;18.00;;;11.45;;
43154;SDS011;34212;51.018;13.586;2023-12-04T22:29:04;16.35;;;10.68;;
43154;SDS011;34212;51.018;13.586;2023-12-04T22:34:06;17.88;;;11.27;;
43154;SDS011;34212;51.018;13.586;2023-12-04T22:39:07;16.80;;;10.73;;
43154;SDS011;34212;51.018;13.586;2023-12-04T22:44:10;16.48;;;10.68;;
43154;SDS011;34212;51.018;13.586;2023-12-04T22:49:11;15.95;;;10.52;;
43154;SDS011;34212;51.018;13.586;2023-12-04T22:54:13;16.00;;;10.35;;
43154;SDS011;34212;51.018;13.586;2023-12-04T22:59:15;15.40;;;10.27;;
43154;SDS011;34212;51.018;13.586;2023-12-04T23:04:16;16.05;;;10.68;;
43154;SDS011;34212;51.018;13.586;2023-12-04T23:09:19;18.33;;;12.00;;
43154;SDS011;34212;51.018;13.586;2023-12-04T23:14:22;19.02;;;12.00;;
43154;SDS011;34212;51.018;13.586;2023-12-04T23:19:24;16.70;;;11.55;;
43154;SDS011;34212;51.018;13.586;2023-12-04T23:29:31;18.90;;;12.30;;
43154;SDS011;34212;51.018;13.586;2023-12-04T23:34:33;15.83;;;11.07;;
43154;SDS011;34212;51.018;13.586;2023-12-04T23:39:35;16.60;;;11.38;;
43154;SDS011;34212;51.018;13.586;2023-12-04T23:44:36;20.00;;;12.20;;
43154;SDS011;34212;51.018;13.586;2023-12-04T23:49:38;16.35;;;10.88;;
43154;SDS011;34212;51.018;13.586;2023-12-04T23:54:40;16.20;;;10.80;;
43154;SDS011;34212;51.018;13.586;2023-12-04T23:59:42;16.73;;;11.02;;
